sensor_id;sensor_type;location;lat;lon;timestamp;temperature;humidity
15947;DHT22;8072;52.554;7.966;2023-04-24T00:02:11;11.10;99.90
15947;DHT22;8072;52.554;7.966;2023-04-24T00:04:38;11.10;99.90
15947;DHT22;8072;52.554;7.966;2023-04-24T00:07:06;11.10;99.90
15947;DHT22;8072;52.554;7.966;2023-04-24T00:09:33;11.10;99.90
15947;DHT22;8072;52.554;7.966;2023-04-24T00:11:59;11.00;99.90
15947;DHT22;8072;52.554;7.966;2023-04-24T00:14:25;11.00;99.90
15947;DHT22;8072;52.554;7.966;2023-04-24T00:16:51;10.90;99.90
15947;DHT22;8072;52.554;7.966;2023-04-24T00:19:17;11.00;99.90
15947;DHT22;8072;52.554;7.966;2023-04-24T00:21:42;10.90;99.90
15947;DHT22;8072;52.554;7.966;2023-04-24T00:24:08;11.00;99.90
15947;DHT22;8072;52.554;7.966;2023-04-24T00:26:35;10.90;99.90
15947;DHT22;8072;52.554;7.966;2023-04-24T00:29:00;11.00;99.90
15947;DHT22;8072;52.554;7.966;2023-04-24T00:31:26;11.00;99.90
15947;DHT22;8072;52.554;7.966;2023-04-24T00:33:52;11.10;99.90
15947;DHT22;8072;52.554;7.966;2023-04-24T00:36:18;11.10;99.90
15947;DHT22;8072;52.554;7.966;2023-04-24T00:38:46;11.10;99.90
15947;DHT22;8072;52.554;7.966;2023-04-24T00:41:11;11.00;99.90
15947;DHT22;8072;52.554;7.966;2023-04-24T00:43:38;11.00;99.90
15947;DHT22;8072;52.554;7.966;2023-04-24T00:46:04;10.90;99.90
15947;DHT22;8072;52.554;7.966;2023-04-24T00:48:30;10.80;99.90
15947;DHT22;8072;52.554;7.966;2023-04-24T00:50:57;10.90;99.90
15947;DHT22;8072;52.554;7.966;2023-04-24T00:53:24;10.90;99.90
15947;DHT22;8072;52.554;7.966;2023-04-24T00:55:50;10.90;99.90
15947;DHT22;8072;52.554;7.966;2023-04-24T00:58:16;10.80;99.90
15947;DHT22;8072;52.554;7.966;2023-04-24T01:00:42;10.90;99.90
15947;DHT22;8072;52.554;7.966;2023-04-24T01:03:09;10.90;99.90
15947;DHT22;8072;52.554;7.966;2023-04-24T01:05:36;10.90;99.90
15947;DHT22;8072;52.554;7.966;2023-04-24T01:08:03;10.90;99.90
15947;DHT22;8072;52.554;7.966;2023-04-24T01:10:29;10.90;99.90
15947;DHT22;8072;52.554;7.966;2023-04-24T01:12:58;10.90;99.90
15947;DHT22;8072;52.554;7.966;2023-04-24T01:15:23;10.90;99.90
15947;DHT22;8072;52.554;7.966;2023-04-24T01:17:49;10.90;99.90
15947;DHT22;8072;52.554;7.966;2023-04-24T01:20:16;10.90;99.90
15947;DHT22;8072;52.554;7.966;2023-04-24T01:22:42;10.90;99.90
15947;DHT22;8072;52.554;7.966;2023-04-24T01:25:09;10.80;99.90
15947;DHT22;8072;52.554;7.966;2023-04-24T01:27:35;10.80;99.90
15947;DHT22;8072;52.554;7.966;2023-04-24T01:30:00;10.70;99.90
15947;DHT22;8072;52.554;7.966;2023-04-24T01:32:26;10.60;99.90
15947;DHT22;8072;52.554;7.966;2023-04-24T01:34:53;10.50;99.90
15947;DHT22;8072;52.554;7.966;2023-04-24T01:37:20;10.40;99.90
15947;DHT22;8072;52.554;7.966;2023-04-24T01:39:46;10.40;99.90
15947;DHT22;8072;52.554;7.966;2023-04-24T01:42:12;10.30;99.90
15947;DHT22;8072;52.554;7.966;2023-04-24T01:44:38;10.30;99.90
15947;DHT22;8072;52.554;7.966;2023-04-24T01:47:04;10.20;99.90
15947;DHT22;8072;52.554;7.966;2023-04-24T01:49:31;10.20;99.90
15947;DHT22;8072;52.554;7.966;2023-04-24T01:51:58;10.20;99.90
15947;DHT22;8072;52.554;7.966;2023-04-24T01:54:23;10.20;99.90
15947;DHT22;8072;52.554;7.966;2023-04-24T01:56:49;10.20;99.90
15947;DHT22;8072;52.554;7.966;2023-04-24T01:59:16;10.10;99.90
15947;DHT22;8072;52.554;7.966;2023-04-24T02:01:42;10.10;99.90
15947;DHT22;8072;52.554;7.966;2023-04-24T02:04:08;10.20;99.90
15947;DHT22;8072;52.554;7.966;2023-04-24T02:06:34;10.20;99.90
15947;DHT22;8072;52.554;7.966;2023-04-24T02:09:00;10.20;99.90
15947;DHT22;8072;52.554;7.966;2023-04-24T02:11:26;10.10;99.90
15947;DHT22;8072;52.554;7.966;2023-04-24T02:13:52;10.10;99.90
15947;DHT22;8072;52.554;7.966;2023-04-24T02:16:18;10.10;99.90
15947;DHT22;8072;52.554;7.966;2023-04-24T02:18:44;10.20;99.90
15947;DHT22;8072;52.554;7.966;2023-04-24T02:21:10;10.20;99.90
15947;DHT22;8072;52.554;7.966;2023-04-24T02:23:36;10.20;99.90
15947;DHT22;8072;52.554;7.966;2023-04-24T02:26:02;10.20;99.90
15947;DHT22;8072;52.554;7.966;2023-04-24T02:28:28;10.20;99.90
15947;DHT22;8072;52.554;7.966;2023-04-24T02:30:54;10.10;99.90
15947;DHT22;8072;52.554;7.966;2023-04-24T02:33:19;10.10;99.90
15947;DHT22;8072;52.554;7.966;2023-04-24T02:35:45;10.20;99.90
15947;DHT22;8072;52.554;7.966;2023-04-24T02:38:11;10.20;99.90
15947;DHT22;8072;52.554;7.966;2023-04-24T02:40:37;10.20;99.90
15947;DHT22;8072;52.554;7.966;2023-04-24T02:43:03;10.20;99.90
15947;DHT22;8072;52.554;7.966;2023-04-24T02:45:29;10.30;99.90
15947;DHT22;8072;52.554;7.966;2023-04-24T02:47:54;10.20;99.90
15947;DHT22;8072;52.554;7.966;2023-04-24T02:50:20;10.20;99.90
15947;DHT22;8072;52.554;7.966;2023-04-24T02:52:46;10.20;99.90
15947;DHT22;8072;52.554;7.966;2023-04-24T02:55:12;10.20;99.90
15947;DHT22;8072;52.554;7.966;2023-04-24T02:57:38;10.20;99.90
15947;DHT22;8072;52.554;7.966;2023-04-24T03:00:04;10.30;99.90
15947;DHT22;8072;52.554;7.966;2023-04-24T03:02:32;10.30;99.90
15947;DHT22;8072;52.554;7.966;2023-04-24T03:04:58;10.30;99.90
15947;DHT22;8072;52.554;7.966;2023-04-24T03:07:25;10.30;99.90
15947;DHT22;8072;52.554;7.966;2023-04-24T03:09:50;10.30;99.90
15947;DHT22;8072;52.554;7.966;2023-04-24T03:12:17;10.30;99.90
15947;DHT22;8072;52.554;7.966;2023-04-24T03:14:44;10.30;99.90
15947;DHT22;8072;52.554;7.966;2023-04-24T03:17:09;10.40;99.90
15947;DHT22;8072;52.554;7.966;2023-04-24T03:19:35;10.40;99.90
15947;DHT22;8072;52.554;7.966;2023-04-24T03:22:04;10.40;99.90
15947;DHT22;8072;52.554;7.966;2023-04-24T03:24:30;10.40;99.90
15947;DHT22;8072;52.554;7.966;2023-04-24T03:26:56;10.40;99.90
15947;DHT22;8072;52.554;7.966;2023-04-24T03:29:22;10.50;99.90
15947;DHT22;8072;52.554;7.966;2023-04-24T03:31:48;10.50;99.90
15947;DHT22;8072;52.554;7.966;2023-04-24T03:34:14;10.50;99.90
15947;DHT22;8072;52.554;7.966;2023-04-24T03:36:40;10.50;99.90
15947;DHT22;8072;52.554;7.966;2023-04-24T03:39:05;10.50;99.90
15947;DHT22;8072;52.554;7.966;2023-04-24T03:41:31;10.40;99.90
15947;DHT22;8072;52.554;7.966;2023-04-24T03:43:57;10.50;99.90
15947;DHT22;8072;52.554;7.966;2023-04-24T03:46:24;10.40;99.90
15947;DHT22;8072;52.554;7.966;2023-04-24T03:48:49;10.40;99.90
15947;DHT22;8072;52.554;7.966;2023-04-24T03:51:15;10.40;99.90
15947;DHT22;8072;52.554;7.966;2023-04-24T03:53:41;10.40;99.90
15947;DHT22;8072;52.554;7.966;2023-04-24T03:56:07;10.40;99.90
15947;DHT22;8072;52.554;7.966;2023-04-24T03:58:33;10.40;99.90
15947;DHT22;8072;52.554;7.966;2023-04-24T04:00:59;10.40;99.90
15947;DHT22;8072;52.554;7.966;2023-04-24T04:03:25;10.40;99.90
15947;DHT22;8072;52.554;7.966;2023-04-24T04:05:51;10.40;99.90
15947;DHT22;8072;52.554;7.966;2023-04-24T04:08:17;10.40;99.90
15947;DHT22;8072;52.554;7.966;2023-04-24T04:10:42;10.40;99.90
15947;DHT22;8072;52.554;7.966;2023-04-24T04:13:08;10.40;99.90
15947;DHT22;8072;52.554;7.966;2023-04-24T04:15:34;10.30;99.90
15947;DHT22;8072;52.554;7.966;2023-04-24T04:18:00;10.30;99.90
15947;DHT22;8072;52.554;7.966;2023-04-24T04:20:25;10.30;99.90
15947;DHT22;8072;52.554;7.966;2023-04-24T04:22:51;10.30;99.90
15947;DHT22;8072;52.554;7.966;2023-04-24T04:25:17;10.30;99.90
15947;DHT22;8072;52.554;7.966;2023-04-24T04:27:46;10.30;99.90
15947;DHT22;8072;52.554;7.966;2023-04-24T04:30:13;10.30;99.90
15947;DHT22;8072;52.554;7.966;2023-04-24T04:32:39;10.20;99.90
15947;DHT22;8072;52.554;7.966;2023-04-24T04:35:05;10.20;99.90
15947;DHT22;8072;52.554;7.966;2023-04-24T04:37:32;10.20;99.90
15947;DHT22;8072;52.554;7.966;2023-04-24T04:40:02;10.20;99.90
15947;DHT22;8072;52.554;7.966;2023-04-24T04:42:32;10.20;99.90
15947;DHT22;8072;52.554;7.966;2023-04-24T04:45:00;10.20;99.90
15947;DHT22;8072;52.554;7.966;2023-04-24T04:47:26;10.20;99.90
15947;DHT22;8072;52.554;7.966;2023-04-24T04:49:54;10.10;99.90
15947;DHT22;8072;52.554;7.966;2023-04-24T04:52:20;10.10;99.90
15947;DHT22;8072;52.554;7.966;2023-04-24T04:54:50;10.10;99.90
15947;DHT22;8072;52.554;7.966;2023-04-24T04:57:16;10.10;99.90
15947;DHT22;8072;52.554;7.966;2023-04-24T04:59:42;10.00;99.90
15947;DHT22;8072;52.554;7.966;2023-04-24T05:02:08;10.00;99.90
15947;DHT22;8072;52.554;7.966;2023-04-24T05:04:34;10.00;99.90
15947;DHT22;8072;52.554;7.966;2023-04-24T05:07:00;10.00;99.90
15947;DHT22;8072;52.554;7.966;2023-04-24T05:09:26;10.00;99.90
15947;DHT22;8072;52.554;7.966;2023-04-24T05:11:53;10.00;99.90
15947;DHT22;8072;52.554;7.966;2023-04-24T05:14:18;10.00;99.90
15947;DHT22;8072;52.554;7.966;2023-04-24T05:16:44;10.00;99.90
15947;DHT22;8072;52.554;7.966;2023-04-24T05:19:10;10.00;99.90
15947;DHT22;8072;52.554;7.966;2023-04-24T05:21:37;10.00;99.90
15947;DHT22;8072;52.554;7.966;2023-04-24T05:24:05;10.00;99.90
15947;DHT22;8072;52.554;7.966;2023-04-24T05:26:31;10.00;99.90
15947;DHT22;8072;52.554;7.966;2023-04-24T05:28:56;10.00;99.90
15947;DHT22;8072;52.554;7.966;2023-04-24T05:31:22;10.00;99.90
15947;DHT22;8072;52.554;7.966;2023-04-24T05:33:48;10.10;99.90
15947;DHT22;8072;52.554;7.966;2023-04-24T05:36:14;10.10;99.90
15947;DHT22;8072;52.554;7.966;2023-04-24T05:38:40;10.10;99.90
15947;DHT22;8072;52.554;7.966;2023-04-24T05:41:06;10.10;99.90
15947;DHT22;8072;52.554;7.966;2023-04-24T05:43:31;10.00;99.90
15947;DHT22;8072;52.554;7.966;2023-04-24T05:45:57;10.10;99.90
15947;DHT22;8072;52.554;7.966;2023-04-24T05:48:23;10.00;99.90
15947;DHT22;8072;52.554;7.966;2023-04-24T05:50:49;10.10;99.90
15947;DHT22;8072;52.554;7.966;2023-04-24T05:53:14;10.10;99.90
15947;DHT22;8072;52.554;7.966;2023-04-24T05:55:40;10.10;99.90
15947;DHT22;8072;52.554;7.966;2023-04-24T05:58:06;10.10;99.90
15947;DHT22;8072;52.554;7.966;2023-04-24T06:00:32;10.10;99.90
15947;DHT22;8072;52.554;7.966;2023-04-24T06:03:00;10.10;99.90
15947;DHT22;8072;52.554;7.966;2023-04-24T06:05:25;10.10;99.90
15947;DHT22;8072;52.554;7.966;2023-04-24T06:07:52;10.10;99.90
15947;DHT22;8072;52.554;7.966;2023-04-24T06:10:18;10.10;99.90
15947;DHT22;8072;52.554;7.966;2023-04-24T06:12:43;10.20;99.90
15947;DHT22;8072;52.554;7.966;2023-04-24T06:15:09;10.20;99.90
15947;DHT22;8072;52.554;7.966;2023-04-24T06:17:35;10.20;99.90
15947;DHT22;8072;52.554;7.966;2023-04-24T06:20:01;10.20;99.90
15947;DHT22;8072;52.554;7.966;2023-04-24T06:22:30;10.20;99.90
15947;DHT22;8072;52.554;7.966;2023-04-24T06:24:56;10.30;99.90
15947;DHT22;8072;52.554;7.966;2023-04-24T06:27:22;10.30;99.90
15947;DHT22;8072;52.554;7.966;2023-04-24T06:29:48;10.30;99.90
15947;DHT22;8072;52.554;7.966;2023-04-24T06:32:22;10.20;99.90
15947;DHT22;8072;52.554;7.966;2023-04-24T06:34:50;10.30;99.90
15947;DHT22;8072;52.554;7.966;2023-04-24T06:37:16;10.30;99.90
15947;DHT22;8072;52.554;7.966;2023-04-24T06:39:42;10.20;99.90
15947;DHT22;8072;52.554;7.966;2023-04-24T06:42:08;10.20;99.90
15947;DHT22;8072;52.554;7.966;2023-04-24T06:44:35;10.20;99.90
15947;DHT22;8072;52.554;7.966;2023-04-24T06:47:07;10.20;99.90
15947;DHT22;8072;52.554;7.966;2023-04-24T06:49:34;10.20;99.90
15947;DHT22;8072;52.554;7.966;2023-04-24T06:52:00;10.20;99.90
15947;DHT22;8072;52.554;7.966;2023-04-24T06:54:26;10.30;99.90
15947;DHT22;8072;52.554;7.966;2023-04-24T06:56:52;10.40;99.90
15947;DHT22;8072;52.554;7.966;2023-04-24T06:59:18;10.40;99.90
15947;DHT22;8072;52.554;7.966;2023-04-24T07:01:47;10.40;99.90
15947;DHT22;8072;52.554;7.966;2023-04-24T07:04:13;10.40;99.90
15947;DHT22;8072;52.554;7.966;2023-04-24T07:06:39;10.40;99.90
15947;DHT22;8072;52.554;7.966;2023-04-24T07:09:05;10.50;99.90
15947;DHT22;8072;52.554;7.966;2023-04-24T07:11:31;10.60;99.90
15947;DHT22;8072;52.554;7.966;2023-04-24T07:13:58;10.60;99.90
15947;DHT22;8072;52.554;7.966;2023-04-24T07:16:24;10.70;99.90
15947;DHT22;8072;52.554;7.966;2023-04-24T07:18:49;10.70;99.90
15947;DHT22;8072;52.554;7.966;2023-04-24T07:21:15;10.70;99.90
15947;DHT22;8072;52.554;7.966;2023-04-24T07:23:41;10.70;99.90
15947;DHT22;8072;52.554;7.966;2023-04-24T07:26:08;10.80;99.90
15947;DHT22;8072;52.554;7.966;2023-04-24T07:28:34;10.80;99.90
15947;DHT22;8072;52.554;7.966;2023-04-24T07:30:59;10.90;99.90
15947;DHT22;8072;52.554;7.966;2023-04-24T07:33:26;10.80;99.90
15947;DHT22;8072;52.554;7.966;2023-04-24T07:35:52;10.70;99.90
15947;DHT22;8072;52.554;7.966;2023-04-24T07:38:18;10.70;99.90
15947;DHT22;8072;52.554;7.966;2023-04-24T07:40:48;10.70;99.90
15947;DHT22;8072;52.554;7.966;2023-04-24T07:43:14;10.80;99.90
15947;DHT22;8072;52.554;7.966;2023-04-24T07:45:40;10.80;99.90
15947;DHT22;8072;52.554;7.966;2023-04-24T07:48:06;10.90;99.90
15947;DHT22;8072;52.554;7.966;2023-04-24T07:50:34;10.90;99.90
15947;DHT22;8072;52.554;7.966;2023-04-24T07:53:01;11.00;99.90
15947;DHT22;8072;52.554;7.966;2023-04-24T07:55:27;11.00;99.90
15947;DHT22;8072;52.554;7.966;2023-04-24T07:57:52;11.10;99.90
15947;DHT22;8072;52.554;7.966;2023-04-24T08:00:18;11.10;99.90
15947;DHT22;8072;52.554;7.966;2023-04-24T08:02:45;11.10;99.90
15947;DHT22;8072;52.554;7.966;2023-04-24T08:05:11;11.10;99.90
15947;DHT22;8072;52.554;7.966;2023-04-24T08:07:37;11.00;99.90
15947;DHT22;8072;52.554;7.966;2023-04-24T08:10:03;11.00;99.90
15947;DHT22;8072;52.554;7.966;2023-04-24T08:12:29;11.00;99.90
15947;DHT22;8072;52.554;7.966;2023-04-24T08:14:55;10.90;99.90
15947;DHT22;8072;52.554;7.966;2023-04-24T08:17:21;10.90;99.90
15947;DHT22;8072;52.554;7.966;2023-04-24T08:19:47;10.90;99.90
15947;DHT22;8072;52.554;7.966;2023-04-24T08:22:17;10.80;99.90
15947;DHT22;8072;52.554;7.966;2023-04-24T08:24:43;10.90;99.90
15947;DHT22;8072;52.554;7.966;2023-04-24T08:27:09;10.90;99.90
15947;DHT22;8072;52.554;7.966;2023-04-24T08:29:36;10.90;99.90
15947;DHT22;8072;52.554;7.966;2023-04-24T08:32:02;10.90;99.90
15947;DHT22;8072;52.554;7.966;2023-04-24T08:34:28;10.90;99.90
15947;DHT22;8072;52.554;7.966;2023-04-24T08:36:54;10.90;99.90
15947;DHT22;8072;52.554;7.966;2023-04-24T08:39:20;10.90;99.90
15947;DHT22;8072;52.554;7.966;2023-04-24T08:41:48;10.80;99.90
15947;DHT22;8072;52.554;7.966;2023-04-24T08:44:14;10.90;99.90
15947;DHT22;8072;52.554;7.966;2023-04-24T08:46:43;10.90;99.90
15947;DHT22;8072;52.554;7.966;2023-04-24T08:49:13;10.80;99.90
15947;DHT22;8072;52.554;7.966;2023-04-24T08:51:39;10.90;99.90
15947;DHT22;8072;52.554;7.966;2023-04-24T08:54:05;10.90;99.90
15947;DHT22;8072;52.554;7.966;2023-04-24T08:56:33;10.90;99.90
15947;DHT22;8072;52.554;7.966;2023-04-24T08:59:00;10.90;99.90
15947;DHT22;8072;52.554;7.966;2023-04-24T09:01:27;10.90;99.90
15947;DHT22;8072;52.554;7.966;2023-04-24T09:03:55;10.80;99.90
15947;DHT22;8072;52.554;7.966;2023-04-24T09:06:21;10.80;99.90
15947;DHT22;8072;52.554;7.966;2023-04-24T09:08:50;10.80;99.90
15947;DHT22;8072;52.554;7.966;2023-04-24T09:11:16;10.70;99.90
15947;DHT22;8072;52.554;7.966;2023-04-24T09:13:43;10.70;99.90
15947;DHT22;8072;52.554;7.966;2023-04-24T09:16:09;10.60;99.90
15947;DHT22;8072;52.554;7.966;2023-04-24T09:18:34;10.60;99.90
15947;DHT22;8072;52.554;7.966;2023-04-24T09:21:08;10.70;99.90
15947;DHT22;8072;52.554;7.966;2023-04-24T09:23:34;10.80;99.90
15947;DHT22;8072;52.554;7.966;2023-04-24T09:26:02;10.80;99.90
15947;DHT22;8072;52.554;7.966;2023-04-24T09:28:36;10.90;99.90
15947;DHT22;8072;52.554;7.966;2023-04-24T09:31:22;10.90;99.90
15947;DHT22;8072;52.554;7.966;2023-04-24T09:34:03;10.80;99.90
15947;DHT22;8072;52.554;7.966;2023-04-24T09:36:32;10.80;99.90
15947;DHT22;8072;52.554;7.966;2023-04-24T09:39:02;10.80;99.90
15947;DHT22;8072;52.554;7.966;2023-04-24T09:41:28;10.60;99.90
15947;DHT22;8072;52.554;7.966;2023-04-24T09:43:55;10.60;99.90
15947;DHT22;8072;52.554;7.966;2023-04-24T09:46:28;10.50;99.90
15947;DHT22;8072;52.554;7.966;2023-04-24T09:48:54;10.30;99.90
15947;DHT22;8072;52.554;7.966;2023-04-24T09:51:33;10.30;99.90
15947;DHT22;8072;52.554;7.966;2023-04-24T09:54:00;10.20;99.90
15947;DHT22;8072;52.554;7.966;2023-04-24T09:56:26;10.20;99.90
15947;DHT22;8072;52.554;7.966;2023-04-24T09:58:52;10.30;99.90
15947;DHT22;8072;52.554;7.966;2023-04-24T10:01:33;10.30;99.90
15947;DHT22;8072;52.554;7.966;2023-04-24T10:03:59;10.30;99.90
15947;DHT22;8072;52.554;7.966;2023-04-24T10:06:35;10.20;99.90
15947;DHT22;8072;52.554;7.966;2023-04-24T10:09:02;10.10;99.90
15947;DHT22;8072;52.554;7.966;2023-04-24T10:11:30;10.10;99.90
15947;DHT22;8072;52.554;7.966;2023-04-24T10:13:56;10.00;99.90
15947;DHT22;8072;52.554;7.966;2023-04-24T10:16:23;10.00;99.90
15947;DHT22;8072;52.554;7.966;2023-04-24T10:18:49;10.00;99.90
15947;DHT22;8072;52.554;7.966;2023-04-24T10:21:19;9.90;99.90
15947;DHT22;8072;52.554;7.966;2023-04-24T10:23:45;9.90;99.90
15947;DHT22;8072;52.554;7.966;2023-04-24T10:26:16;9.90;99.90
15947;DHT22;8072;52.554;7.966;2023-04-24T10:28:47;9.80;99.90
15947;DHT22;8072;52.554;7.966;2023-04-24T10:31:14;9.70;99.90
15947;DHT22;8072;52.554;7.966;2023-04-24T10:33:45;9.60;99.90
15947;DHT22;8072;52.554;7.966;2023-04-24T10:36:13;9.50;99.90
15947;DHT22;8072;52.554;7.966;2023-04-24T10:38:42;9.40;99.90
15947;DHT22;8072;52.554;7.966;2023-04-24T10:41:12;9.40;99.90
15947;DHT22;8072;52.554;7.966;2023-04-24T10:43:45;9.30;99.90
15947;DHT22;8072;52.554;7.966;2023-04-24T10:46:19;9.30;99.90
15947;DHT22;8072;52.554;7.966;2023-04-24T10:48:53;9.20;99.90
15947;DHT22;8072;52.554;7.966;2023-04-24T10:51:22;9.30;99.90
15947;DHT22;8072;52.554;7.966;2023-04-24T10:53:50;9.20;99.90
15947;DHT22;8072;52.554;7.966;2023-04-24T10:56:17;9.30;99.90
15947;DHT22;8072;52.554;7.966;2023-04-24T10:58:50;9.30;99.90
15947;DHT22;8072;52.554;7.966;2023-04-24T11:01:27;9.20;99.90
15947;DHT22;8072;52.554;7.966;2023-04-24T11:03:58;9.30;99.90
15947;DHT22;8072;52.554;7.966;2023-04-24T11:06:31;9.30;99.90
15947;DHT22;8072;52.554;7.966;2023-04-24T11:09:09;9.30;99.90
15947;DHT22;8072;52.554;7.966;2023-04-24T11:11:38;9.30;99.90
15947;DHT22;8072;52.554;7.966;2023-04-24T11:14:10;9.40;99.90
15947;DHT22;8072;52.554;7.966;2023-04-24T11:16:42;9.40;99.90
15947;DHT22;8072;52.554;7.966;2023-04-24T11:22:02;9.40;99.90
15947;DHT22;8072;52.554;7.966;2023-04-24T11:29:41;9.50;99.90
15947;DHT22;8072;52.554;7.966;2023-04-24T11:32:36;9.50;99.90
15947;DHT22;8072;52.554;7.966;2023-04-24T11:35:03;9.50;99.90
15947;DHT22;8072;52.554;7.966;2023-04-24T11:37:38;9.40;99.90
15947;DHT22;8072;52.554;7.966;2023-04-24T11:40:07;9.30;99.90
15947;DHT22;8072;52.554;7.966;2023-04-24T11:42:43;9.20;99.90
15947;DHT22;8072;52.554;7.966;2023-04-24T11:47:40;9.10;99.90
15947;DHT22;8072;52.554;7.966;2023-04-24T11:50:17;9.20;99.90
15947;DHT22;8072;52.554;7.966;2023-04-24T11:52:46;9.10;99.90
15947;DHT22;8072;52.554;7.966;2023-04-24T11:57:46;9.10;99.90
15947;DHT22;8072;52.554;7.966;2023-04-24T12:00:22;9.00;99.90
15947;DHT22;8072;52.554;7.966;2023-04-24T12:02:48;9.00;99.90
15947;DHT22;8072;52.554;7.966;2023-04-24T12:05:22;9.10;99.90
15947;DHT22;8072;52.554;7.966;2023-04-24T12:07:48;9.10;99.90
15947;DHT22;8072;52.554;7.966;2023-04-24T12:10:22;9.00;99.90
15947;DHT22;8072;52.554;7.966;2023-04-24T12:12:49;9.00;99.90
15947;DHT22;8072;52.554;7.966;2023-04-24T12:15:18;9.00;99.90
15947;DHT22;8072;52.554;7.966;2023-04-24T12:17:44;9.00;99.90
15947;DHT22;8072;52.554;7.966;2023-04-24T12:20:11;9.00;99.90
15947;DHT22;8072;52.554;7.966;2023-04-24T12:22:51;9.00;99.90
15947;DHT22;8072;52.554;7.966;2023-04-24T12:25:23;9.00;99.90
15947;DHT22;8072;52.554;7.966;2023-04-24T12:28:08;9.10;99.90
15947;DHT22;8072;52.554;7.966;2023-04-24T12:30:47;9.10;99.90
15947;DHT22;8072;52.554;7.966;2023-04-24T12:33:18;9.00;99.90
15947;DHT22;8072;52.554;7.966;2023-04-24T12:35:45;9.00;99.90
15947;DHT22;8072;52.554;7.966;2023-04-24T12:38:12;9.10;99.90
15947;DHT22;8072;52.554;7.966;2023-04-24T12:40:40;9.10;99.90
15947;DHT22;8072;52.554;7.966;2023-04-24T12:43:18;9.10;99.90
15947;DHT22;8072;52.554;7.966;2023-04-24T12:45:44;9.10;99.90
15947;DHT22;8072;52.554;7.966;2023-04-24T12:48:10;9.00;99.90
15947;DHT22;8072;52.554;7.966;2023-04-24T12:50:37;9.10;99.90
15947;DHT22;8072;52.554;7.966;2023-04-24T12:53:03;9.00;99.90
15947;DHT22;8072;52.554;7.966;2023-04-24T12:55:29;9.00;99.90
15947;DHT22;8072;52.554;7.966;2023-04-24T12:57:54;9.00;99.90
15947;DHT22;8072;52.554;7.966;2023-04-24T13:00:21;9.00;99.90
15947;DHT22;8072;52.554;7.966;2023-04-24T13:02:47;8.90;99.90
15947;DHT22;8072;52.554;7.966;2023-04-24T13:05:13;8.90;99.90
15947;DHT22;8072;52.554;7.966;2023-04-24T13:07:39;8.90;99.90
15947;DHT22;8072;52.554;7.966;2023-04-24T13:10:06;8.90;99.90
15947;DHT22;8072;52.554;7.966;2023-04-24T13:12:32;9.00;99.90
15947;DHT22;8072;52.554;7.966;2023-04-24T13:14:58;9.00;99.90
15947;DHT22;8072;52.554;7.966;2023-04-24T13:17:24;9.00;99.90
15947;DHT22;8072;52.554;7.966;2023-04-24T13:19:51;9.10;99.90
15947;DHT22;8072;52.554;7.966;2023-04-24T13:22:17;9.10;99.90
15947;DHT22;8072;52.554;7.966;2023-04-24T13:24:46;9.10;99.90
15947;DHT22;8072;52.554;7.966;2023-04-24T13:27:14;9.20;99.90
15947;DHT22;8072;52.554;7.966;2023-04-24T13:29:40;9.20;99.90
15947;DHT22;8072;52.554;7.966;2023-04-24T13:32:06;9.20;99.90
15947;DHT22;8072;52.554;7.966;2023-04-24T13:34:32;9.20;99.90
15947;DHT22;8072;52.554;7.966;2023-04-24T13:36:58;9.20;99.90
15947;DHT22;8072;52.554;7.966;2023-04-24T13:39:25;9.20;99.90
15947;DHT22;8072;52.554;7.966;2023-04-24T13:41:51;9.20;99.90
15947;DHT22;8072;52.554;7.966;2023-04-24T13:44:18;9.20;99.90
15947;DHT22;8072;52.554;7.966;2023-04-24T13:46:46;9.30;99.90
15947;DHT22;8072;52.554;7.966;2023-04-24T13:49:13;9.30;99.90
15947;DHT22;8072;52.554;7.966;2023-04-24T13:51:40;9.30;99.90
15947;DHT22;8072;52.554;7.966;2023-04-24T13:54:06;9.30;99.90
15947;DHT22;8072;52.554;7.966;2023-04-24T13:56:32;9.30;99.90
15947;DHT22;8072;52.554;7.966;2023-04-24T13:58:57;9.30;99.90
15947;DHT22;8072;52.554;7.966;2023-04-24T14:01:23;9.30;99.90
15947;DHT22;8072;52.554;7.966;2023-04-24T14:03:55;9.30;99.90
15947;DHT22;8072;52.554;7.966;2023-04-24T14:06:21;9.30;99.90
15947;DHT22;8072;52.554;7.966;2023-04-24T14:08:49;9.30;99.90
15947;DHT22;8072;52.554;7.966;2023-04-24T14:11:16;9.30;99.90
15947;DHT22;8072;52.554;7.966;2023-04-24T14:13:42;9.30;99.90
15947;DHT22;8072;52.554;7.966;2023-04-24T14:16:09;9.30;99.90
15947;DHT22;8072;52.554;7.966;2023-04-24T14:18:35;9.20;99.90
15947;DHT22;8072;52.554;7.966;2023-04-24T14:21:02;9.30;99.90
15947;DHT22;8072;52.554;7.966;2023-04-24T14:23:28;9.30;99.90
15947;DHT22;8072;52.554;7.966;2023-04-24T14:25:54;9.30;99.90
15947;DHT22;8072;52.554;7.966;2023-04-24T14:28:20;9.40;99.90
15947;DHT22;8072;52.554;7.966;2023-04-24T14:30:47;9.40;99.90
15947;DHT22;8072;52.554;7.966;2023-04-24T14:33:14;9.40;99.90
15947;DHT22;8072;52.554;7.966;2023-04-24T14:35:40;9.30;99.90
15947;DHT22;8072;52.554;7.966;2023-04-24T14:38:07;9.30;99.90
15947;DHT22;8072;52.554;7.966;2023-04-24T14:40:33;9.30;99.90
15947;DHT22;8072;52.554;7.966;2023-04-24T14:42:59;9.30;99.90
15947;DHT22;8072;52.554;7.966;2023-04-24T14:45:26;9.30;99.90
15947;DHT22;8072;52.554;7.966;2023-04-24T14:47:52;9.20;99.90
15947;DHT22;8072;52.554;7.966;2023-04-24T14:50:18;9.10;99.90
15947;DHT22;8072;52.554;7.966;2023-04-24T14:52:43;9.10;99.90
15947;DHT22;8072;52.554;7.966;2023-04-24T14:55:10;9.00;99.90
15947;DHT22;8072;52.554;7.966;2023-04-24T14:57:35;9.00;99.90
15947;DHT22;8072;52.554;7.966;2023-04-24T15:00:03;9.00;99.90
15947;DHT22;8072;52.554;7.966;2023-04-24T15:02:32;9.00;99.90
15947;DHT22;8072;52.554;7.966;2023-04-24T15:04:58;9.00;99.90
15947;DHT22;8072;52.554;7.966;2023-04-24T15:07:24;9.00;99.90
15947;DHT22;8072;52.554;7.966;2023-04-24T15:09:50;9.00;99.90
15947;DHT22;8072;52.554;7.966;2023-04-24T15:12:16;9.10;99.90
15947;DHT22;8072;52.554;7.966;2023-04-24T15:14:42;9.00;99.90
15947;DHT22;8072;52.554;7.966;2023-04-24T15:17:07;9.10;99.90
15947;DHT22;8072;52.554;7.966;2023-04-24T15:19:33;9.00;99.90
15947;DHT22;8072;52.554;7.966;2023-04-24T15:21:59;9.00;99.90
15947;DHT22;8072;52.554;7.966;2023-04-24T15:24:25;9.00;99.90
15947;DHT22;8072;52.554;7.966;2023-04-24T15:26:51;8.90;99.90
15947;DHT22;8072;52.554;7.966;2023-04-24T15:29:16;8.90;99.90
15947;DHT22;8072;52.554;7.966;2023-04-24T15:31:42;8.80;99.90
15947;DHT22;8072;52.554;7.966;2023-04-24T15:34:08;8.80;99.90
15947;DHT22;8072;52.554;7.966;2023-04-24T15:36:34;8.70;99.90
15947;DHT22;8072;52.554;7.966;2023-04-24T15:39:01;8.70;99.90
15947;DHT22;8072;52.554;7.966;2023-04-24T15:41:27;8.70;99.90
15947;DHT22;8072;52.554;7.966;2023-04-24T15:43:53;8.70;99.90
15947;DHT22;8072;52.554;7.966;2023-04-24T15:46:19;8.70;99.90
15947;DHT22;8072;52.554;7.966;2023-04-24T15:48:44;8.70;99.90
15947;DHT22;8072;52.554;7.966;2023-04-24T15:51:10;8.60;99.90
15947;DHT22;8072;52.554;7.966;2023-04-24T15:53:36;8.70;99.90
15947;DHT22;8072;52.554;7.966;2023-04-24T15:56:02;8.70;99.90
15947;DHT22;8072;52.554;7.966;2023-04-24T15:58:28;8.80;99.90
15947;DHT22;8072;52.554;7.966;2023-04-24T16:00:53;8.80;99.90
15947;DHT22;8072;52.554;7.966;2023-04-24T16:03:20;8.80;99.90
15947;DHT22;8072;52.554;7.966;2023-04-24T16:05:46;8.70;99.90